Time;durP1;ratioP1;P1;durP2;ratioP2;P2;SDS_P1;SDS_P2;PMS_P1;PMS_P2;Temp;Humidity;BMP_temperature;BMP_pressure;BME280_temperature;BME280_humidity;BME280_pressure;Samples;Min_cycle;Max_cycle;Signal;HPM_P1;HPM_P2
2023/01/08 00:00:58;;;;;;;0.50;0.50;;;;;;;3.62;92.66;100120.75;5050769;28;20201;-59
2023/01/08 00:03:25;;;;;;;0.60;0.60;;;;;;;3.63;92.58;100116.53;5050971;28;20200;-59
2023/01/08 00:05:51;;;;;;;0.60;0.60;;;;;;;3.55;92.69;100113.09;5050812;28;20628;-59
2023/01/08 00:08:18;;;;;;;0.50;0.50;;;;;;;3.62;92.63;100112.28;5051251;28;20206;-59
2023/01/08 00:10:54;;;;;;;0.60;0.60;;;;;;;3.34;92.81;100068.09;5050882;28;20203;-59
2023/01/08 00:13:21;;;;;;;1.10;1.10;;;;;;;3.56;92.79;100104.63;5048880;28;20265;-59
2023/01/08 00:15:48;;;;;;;1.00;1.00;;;;;;;3.58;93.17;100108.03;5050741;28;20219;-60
2023/01/08 00:18:15;;;;;;;0.53;0.53;;;;;;;3.55;92.80;100103.81;5050930;28;20251;-59
2023/01/08 00:20:42;;;;;;;0.63;0.63;;;;;;;3.54;92.87;100108.84;5051142;28;20200;-59
2023/01/08 00:23:10;;;;;;;0.57;0.57;;;;;;;3.48;92.63;100098.66;5050655;28;20216;-59
2023/01/08 00:25:37;;;;;;;0.70;0.70;;;;;;;3.56;92.73;100113.09;5050824;28;20250;-59
2023/01/08 00:28:05;;;;;;;0.60;0.60;;;;;;;3.53;92.31;100108.00;5050526;28;20201;-59
2023/01/08 00:30:32;;;;;;;0.50;0.50;;;;;;;3.48;92.31;100106.25;5050551;28;20254;-59
2023/01/08 00:32:59;;;;;;;0.50;0.50;;;;;;;3.46;92.46;100110.44;5050689;28;20600;-58
2023/01/08 00:35:25;;;;;;;0.70;0.70;;;;;;;3.45;92.05;100103.69;5050640;28;20208;-59
2023/01/08 00:37:52;;;;;;;0.60;0.60;;;;;;;3.43;92.50;100105.34;5050499;28;20196;-59
2023/01/08 00:40:19;;;;;;;0.73;0.73;;;;;;;3.40;92.37;100105.31;5050623;28;20197;-58
2023/01/08 00:42:46;;;;;;;0.63;0.63;;;;;;;3.38;92.52;100104.47;5050878;28;20193;-59
2023/01/08 00:45:14;;;;;;;1.17;1.17;;;;;;;3.34;92.65;100097.66;5050516;28;20209;-59
2023/01/08 00:47:41;;;;;;;0.97;0.97;;;;;;;3.33;92.66;100101.06;5050610;28;20196;-59
2023/01/08 00:50:08;;;;;;;0.60;0.60;;;;;;;3.20;92.97;100094.16;5052506;28;20193;-59
2023/01/08 00:52:35;;;;;;;0.63;0.63;;;;;;;3.30;93.02;100106.06;5054238;28;20201;-59
2023/01/08 00:55:02;;;;;;;0.70;0.70;;;;;;;3.28;92.97;100112.81;5052663;28;20216;-59
2023/01/08 00:57:33;;;;;;;0.70;0.70;;;;;;;3.22;92.88;100111.06;5054774;28;20216;-59
2023/01/08 00:59:59;;;;;;;0.60;0.60;;;;;;;3.17;93.05;100105.94;5050931;28;20196;-58
2023/01/08 01:02:28;;;;;;;0.70;0.70;;;;;;;3.09;92.83;100112.63;5054300;28;20553;-58
2023/01/08 01:04:55;;;;;;;0.60;0.60;;;;;;;2.97;93.05;100107.38;5054206;28;20736;-58
2023/01/08 01:07:21;;;;;;;0.60;0.60;;;;;;;2.91;93.12;100107.31;5053996;28;20207;-58
2023/01/08 01:09:48;;;;;;;0.60;0.60;;;;;;;2.86;93.57;100103.91;5054038;28;20196;-58
2023/01/08 01:12:15;;;;;;;0.73;0.73;;;;;;;2.84;93.80;100100.50;5053898;28;20207;-58
2023/01/08 01:14:42;;;;;;;0.70;0.70;;;;;;;2.77;94.47;100096.19;5053015;28;20197;-59
2023/01/08 01:17:10;;;;;;;0.70;0.70;;;;;;;2.71;94.65;100083.47;5053960;28;20197;-59
2023/01/08 01:19:39;;;;;;;0.80;0.80;;;;;;;2.84;94.85;100099.66;5053925;28;20192;-59
2023/01/08 01:22:06;;;;;;;0.80;0.80;;;;;;;2.82;94.47;100094.56;5049237;28;20220;-59
2023/01/08 01:24:33;;;;;;;0.87;0.87;;;;;;;2.83;94.59;100092.88;5053324;28;20193;-59
2023/01/08 01:27:00;;;;;;;0.70;0.70;;;;;;;2.88;94.23;100092.09;5053957;28;20287;-58
2023/01/08 01:29:27;;;;;;;0.73;0.73;;;;;;;2.76;94.13;100071.72;5053530;28;20204;-59
2023/01/08 01:31:53;;;;;;;0.70;0.70;;;;;;;2.85;94.23;100081.06;5054221;28;20296;-58
2023/01/08 01:34:20;;;;;;;0.63;0.63;;;;;;;2.78;94.53;100087.75;5053485;28;20197;-59
2023/01/08 01:36:49;;;;;;;0.60;0.60;;;;;;;2.82;94.52;100086.09;5053638;28;20591;-59
2023/01/08 01:39:16;;;;;;;1.23;1.23;;;;;;;2.83;94.27;100081.06;5053902;28;20615;-59
2023/01/08 01:41:45;;;;;;;0.70;0.70;;;;;;;2.82;94.29;100075.97;5053528;28;20196;-59
2023/01/08 01:44:35;;;;;;;0.60;0.60;;;;;;;2.79;94.20;100081.00;5053796;28;20584;-59
2023/01/08 01:47:05;;;;;;;0.80;0.80;;;;;;;2.76;94.17;100076.78;5052717;28;20585;-59
2023/01/08 01:49:33;;;;;;;0.80;0.80;;;;;;;2.73;93.85;100076.72;5053316;28;20576;-58
2023/01/08 01:52:05;;;;;;;1.00;1.00;;;;;;;2.67;93.85;100071.59;5052294;28;20245;-59
2023/01/08 01:54:32;;;;;;;0.70;0.70;;;;;;;2.56;94.28;100058.81;5053311;28;20695;-58
2023/01/08 01:57:00;;;;;;;0.63;0.63;;;;;;;2.56;94.76;100073.13;5051864;28;20231;-58
2023/01/08 01:59:28;;;;;;;0.80;0.80;;;;;;;2.60;94.89;100074.88;5053218;28;20204;-58
2023/01/08 02:01:56;;;;;;;0.60;0.60;;;;;;;2.57;95.26;100069.78;5052168;28;20200;-58
2023/01/08 02:04:23;;;;;;;0.77;0.77;;;;;;;2.53;95.23;100073.09;5049305;28;20220;-59
2023/01/08 02:06:58;;;;;;;0.67;0.67;;;;;;;2.57;94.98;100074.84;5052601;28;20200;-59
2023/01/08 02:09:40;;;;;;;0.60;0.60;;;;;;;2.58;94.84;100071.50;5049158;28;20286;-59
2023/01/08 02:12:16;;;;;;;0.70;0.70;;;;;;;2.54;94.79;100069.75;5053184;28;20545;-58
2023/01/08 02:14:53;;;;;;;0.70;0.70;;;;;;;2.56;94.82;100073.13;5052672;28;20604;-59
2023/01/08 02:17:26;;;;;;;1.47;1.47;;;;;;;2.56;95.17;100068.06;5052274;28;20754;-58
2023/01/08 02:19:58;;;;;;;0.80;0.80;;;;;;;2.57;95.17;100069.78;5052534;28;20216;-58
2023/01/08 02:22:36;;;;;;;0.80;0.80;;;;;;;2.57;95.37;100064.72;5052412;28;20209;-59
2023/01/08 02:25:10;;;;;;;1.47;1.47;;;;;;;2.57;95.56;100069.78;5052028;28;20204;-58
2023/01/08 02:27:42;;;;;;;0.80;0.80;;;;;;;2.53;95.85;100057.91;5049426;28;20246;-59
2023/01/08 02:30:10;;;;;;;0.60;0.60;;;;;;;2.54;95.72;100064.69;5052694;28;20197;-58
2023/01/08 02:32:39;;;;;;;0.70;0.70;;;;;;;2.56;95.98;100068.06;5053027;28;20216;-58
2023/01/08 02:35:07;;;;;;;0.50;0.50;;;;;;;2.52;95.68;100067.19;5051267;28;20606;-59
2023/01/08 02:37:36;;;;;;;0.60;0.60;;;;;;;2.50;95.67;100062.94;5052581;28;20200;-58
2023/01/08 02:40:24;;;;;;;0.70;0.70;;;;;;;2.44;95.61;100057.81;5052171;28;20224;-59
2023/01/08 02:42:57;;;;;;;0.60;0.60;;;;;;;2.35;95.48;100053.50;5052379;28;20204;-59
2023/01/08 02:45:37;;;;;;;0.60;0.60;;;;;;;2.33;95.58;100054.28;5052304;28;20205;-59
2023/01/08 02:48:09;;;;;;;0.70;0.70;;;;;;;2.31;95.98;100054.28;5052140;28;20255;-58
2023/01/08 02:50:40;;;;;;;0.60;0.60;;;;;;;2.31;96.42;100053.41;5052305;28;20292;-59
2023/01/08 02:53:13;;;;;;;0.67;0.67;;;;;;;2.34;96.13;100050.91;5051928;28;20204;-58
2023/01/08 02:55:43;;;;;;;0.60;0.60;;;;;;;2.24;96.07;100041.50;5051981;28;20212;-58
2023/01/08 02:58:12;;;;;;;0.97;0.97;;;;;;;2.28;96.33;100046.63;5051867;28;20212;-59
2023/01/08 03:00:41;;;;;;;0.60;0.60;;;;;;;2.29;96.03;100057.63;5051917;28;20197;-59
2023/01/08 03:03:12;;;;;;;0.83;0.83;;;;;;;2.29;96.32;100052.56;5052229;28;20680;-58
2023/01/08 03:05:43;;;;;;;0.73;0.73;;;;;;;2.26;95.97;100053.38;5052005;28;20279;-59
2023/01/08 03:08:11;;;;;;;0.63;0.63;;;;;;;2.28;96.06;100058.44;5052031;28;20193;-59
2023/01/08 03:10:41;;;;;;;0.60;0.60;;;;;;;2.27;96.09;100059.25;5051975;28;20200;-58
2023/01/08 03:13:16;;;;;;;0.70;0.70;;;;;;;2.18;95.75;100041.44;5051760;28;20687;-59
2023/01/08 03:15:47;;;;;;;0.97;0.97;;;;;;;2.22;95.83;100050.75;5050626;28;20262;-58
2023/01/08 03:18:19;;;;;;;0.60;0.60;;;;;;;2.27;95.51;100059.25;5051701;28;20197;-58
2023/01/08 03:20:47;;;;;;;0.60;0.60;;;;;;;2.28;95.44;100055.91;5051636;28;20201;-58
2023/01/08 03:23:17;;;;;;;0.60;0.60;;;;;;;2.25;95.64;100065.97;5051532;28;20193;-59
2023/01/08 03:25:47;;;;;;;0.60;0.60;;;;;;;2.26;95.66;100065.16;5050595;28;20572;-59
2023/01/08 03:28:20;;;;;;;0.70;0.70;;;;;;;2.26;95.61;100067.69;5051692;28;20197;-59
2023/01/08 03:30:49;;;;;;;0.70;0.70;;;;;;;2.25;95.23;100059.25;5051625;28;20224;-58
2023/01/08 03:33:19;;;;;;;0.70;0.70;;;;;;;2.25;95.35;100060.94;5051420;28;20207;-58
2023/01/08 03:35:50;;;;;;;0.67;0.67;;;;;;;2.21;95.36;100059.19;5051233;28;20269;-58
2023/01/08 03:38:21;;;;;;;0.70;0.70;;;;;;;2.19;95.32;100061.69;5051320;28;20200;-59
2023/01/08 03:40:52;;;;;;;0.70;0.70;;;;;;;2.20;95.41;100063.38;5051227;28;20208;-59
2023/01/08 03:43:20;;;;;;;0.60;0.60;;;;;;;2.17;95.55;100058.28;5051304;28;20207;-58
2023/01/08 03:45:52;;;;;;;0.70;0.70;;;;;;;2.13;95.41;100054.84;5051135;28;20200;-58
2023/01/08 03:48:20;;;;;;;0.70;0.70;;;;;;;2.13;95.66;100056.56;5050777;28;20208;-58
2023/01/08 03:50:48;;;;;;;0.60;0.60;;;;;;;2.13;95.37;100060.75;5050790;28;20283;-59
2023/01/08 03:53:15;;;;;;;0.73;0.73;;;;;;;2.10;95.14;100059.88;5051166;28;20205;-59
2023/01/08 03:55:42;;;;;;;1.00;1.00;;;;;;;2.10;95.20;100056.53;5050715;28;20217;-58
2023/01/08 03:58:09;;;;;;;0.70;0.70;;;;;;;2.07;95.45;100052.25;5051082;28;20201;-59
2023/01/08 04:00:37;;;;;;;0.60;0.60;;;;;;;2.06;95.61;100050.56;5050866;28;20208;-59
2023/01/08 04:03:04;;;;;;;1.10;1.10;;;;;;;1.99;95.32;100038.66;5051071;28;20689;-59
2023/01/08 04:05:31;;;;;;;0.60;0.60;;;;;;;2.02;95.28;100058.94;5049133;28;20220;-58
2023/01/08 04:07:58;;;;;;;0.60;0.60;;;;;;;1.99;95.66;100061.41;5050937;28;20215;-59
2023/01/08 04:10:25;;;;;;;0.70;0.70;;;;;;;1.92;95.88;100066.34;5050923;28;20205;-59
2023/01/08 04:12:52;;;;;;;0.73;0.73;;;;;;;1.94;96.15;100065.53;5050632;28;20192;-59
2023/01/08 04:15:20;;;;;;;0.63;0.63;;;;;;;1.87;95.98;100060.38;5050826;28;20201;-58
2023/01/08 04:17:49;;;;;;;0.70;0.70;;;;;;;1.88;96.33;100064.59;5048381;28;20197;-58
2023/01/08 04:20:15;;;;;;;0.70;0.70;;;;;;;1.85;96.28;100075.50;5050871;28;20589;-58
2023/01/08 04:22:42;;;;;;;0.70;0.70;;;;;;;1.80;96.12;100072.06;5050837;28;20200;-59
2023/01/08 04:25:09;;;;;;;0.60;0.60;;;;;;;1.74;95.96;100074.50;5053595;28;20200;-59
2023/01/08 04:27:36;;;;;;;0.90;0.90;;;;;;;1.72;95.96;100073.63;5057030;28;20209;-59
2023/01/08 04:30:03;;;;;;;0.73;0.73;;;;;;;1.63;96.40;100073.47;5057515;28;20204;-59
2023/01/08 04:32:30;;;;;;;0.77;0.77;;;;;;;1.62;96.84;100076.81;5057105;28;20200;-59
2023/01/08 04:34:58;;;;;;;0.60;0.60;;;;;;;1.65;96.88;100086.97;5057259;28;20202;-59
2023/01/08 04:37:25;;;;;;;0.73;0.73;;;;;;;1.66;96.80;100083.63;5057457;28;20700;-59
2023/01/08 04:39:51;;;;;;;0.70;0.70;;;;;;;1.66;96.29;100086.16;5057070;28;20192;-59
2023/01/08 04:42:18;;;;;;;0.70;0.70;;;;;;;1.68;96.32;100081.97;5056983;28;20196;-58
2023/01/08 04:44:47;;;;;;;0.67;0.67;;;;;;;1.65;95.95;100081.91;5057350;28;20196;-59
2023/01/08 04:47:13;;;;;;;0.70;0.70;;;;;;;1.65;95.73;100089.50;5056892;28;20193;-58
2023/01/08 04:49:40;;;;;;;0.70;0.70;;;;;;;1.63;95.62;100088.63;5056919;28;20608;-59
2023/01/08 04:52:08;;;;;;;0.80;0.80;;;;;;;1.55;95.54;100080.09;5057204;28;20197;-59
2023/01/08 04:54:35;;;;;;;0.77;0.77;;;;;;;1.61;95.72;100095.34;5056955;28;20227;-59
2023/01/08 04:57:02;;;;;;;0.60;0.60;;;;;;;1.38;95.44;100051.16;5057262;28;20209;-58
2023/01/08 04:59:29;;;;;;;0.60;0.60;;;;;;;1.63;95.13;100097.88;5056989;28;20592;-59
2023/01/08 05:01:56;;;;;;;0.67;0.67;;;;;;;1.61;95.01;100105.47;5057191;28;20754;-59
2023/01/08 05:04:23;;;;;;;0.60;0.60;;;;;;;1.55;95.09;100098.59;5056940;28;20714;-58
2023/01/08 05:06:49;;;;;;;0.93;0.93;;;;;;;1.55;95.00;100101.13;5056868;28;20197;-59
2023/01/08 05:09:17;;;;;;;0.70;0.70;;;;;;;1.55;94.79;100097.78;5057081;28;20625;-58
2023/01/08 05:11:44;;;;;;;0.70;0.70;;;;;;;1.54;95.04;100104.50;5057005;28;20193;-58
2023/01/08 05:14:11;;;;;;;0.70;0.70;;;;;;;1.48;94.85;100096.81;5057038;28;20200;-59
2023/01/08 05:16:39;;;;;;;0.80;0.80;;;;;;;1.46;95.27;100095.06;5057216;28;20219;-59
2023/01/08 05:19:06;;;;;;;0.70;0.70;;;;;;;1.41;95.42;100101.72;5057044;28;20212;-59
2023/01/08 05:21:33;;;;;;;0.63;0.63;;;;;;;1.40;95.55;100105.94;5057136;28;20255;-59
2023/01/08 05:23:59;;;;;;;0.70;0.70;;;;;;;1.40;95.76;100100.03;5056813;28;20207;-59
2023/01/08 05:26:28;;;;;;;0.70;0.70;;;;;;;1.38;95.96;100094.09;5056959;28;20595;-58
2023/01/08 05:28:54;;;;;;;0.80;0.80;;;;;;;1.42;95.83;100105.97;5056754;28;20197;-59
2023/01/08 05:31:21;;;;;;;0.70;0.70;;;;;;;1.37;95.55;100099.97;5057008;28;20638;-58
2023/01/08 05:33:48;;;;;;;0.60;0.60;;;;;;;1.42;95.72;100103.44;5056802;28;20193;-59
2023/01/08 05:36:15;;;;;;;0.70;0.70;;;;;;;1.33;95.54;100098.19;5053732;28;20212;-59
2023/01/08 05:38:42;;;;;;;0.60;0.60;;;;;;;1.39;95.57;100101.69;5053646;28;20204;-58
2023/01/08 05:41:09;;;;;;;0.60;0.60;;;;;;;1.27;95.44;100088.84;5053732;28;20201;-58
2023/01/08 05:43:38;;;;;;;0.60;0.60;;;;;;;1.37;95.23;100100.81;5053516;28;20204;-59
2023/01/08 05:46:05;;;;;;;0.60;0.60;;;;;;;1.35;95.39;100106.69;5053380;28;20557;-58
2023/01/08 05:48:34;;;;;;;0.70;0.70;;;;;;;1.33;95.22;100101.59;5053649;28;20281;-58
2023/01/08 05:51:01;;;;;;;0.70;0.70;;;;;;;1.29;94.93;100099.00;5052973;28;20197;-59
2023/01/08 05:53:27;;;;;;;0.63;0.63;;;;;;;1.20;95.07;100091.22;5053380;28;20254;-58
2023/01/08 05:55:59;;;;;;;0.60;0.60;;;;;;;1.28;95.08;100105.72;5052677;28;20270;-58
2023/01/08 05:58:26;;;;;;;0.70;0.70;;;;;;;1.28;95.22;100107.38;5053257;28;20196;-59
2023/01/08 06:00:54;;;;;;;0.70;0.70;;;;;;;1.28;95.34;100115.81;5052888;28;21170;-58
2023/01/08 06:03:21;;;;;;;0.70;0.70;;;;;;;1.26;95.41;100111.56;5052717;28;20215;-59
2023/01/08 06:05:48;;;;;;;0.60;0.60;;;;;;;1.26;95.43;100111.56;5052970;28;20205;-59
2023/01/08 06:08:15;;;;;;;0.70;0.70;;;;;;;1.25;95.27;100110.72;5052909;28;20200;-59
2023/01/08 06:10:42;;;;;;;0.67;0.67;;;;;;;1.16;95.51;100097.06;5052747;28;20283;-58
2023/01/08 06:13:10;;;;;;;0.87;0.87;;;;;;;1.23;95.50;100106.47;5052979;28;20599;-59
2023/01/08 06:15:37;;;;;;;0.60;0.60;;;;;;;1.23;95.46;100111.50;5053322;28;20299;-58
2023/01/08 06:18:06;;;;;;;0.63;0.63;;;;;;;1.22;95.70;100119.91;5051328;28;20220;-58
2023/01/08 06:20:33;;;;;;;0.70;0.70;;;;;;;1.23;95.61;100119.09;5052741;28;20204;-59
2023/01/08 06:22:59;;;;;;;0.70;0.70;;;;;;;1.24;95.96;100123.31;5052682;28;20197;-59
2023/01/08 06:25:26;;;;;;;0.70;0.70;;;;;;;1.23;96.06;100116.56;5052658;28;20204;-58
2023/01/08 06:27:53;;;;;;;0.90;0.90;;;;;;;1.20;96.30;100116.47;5052947;28;20193;-59
2023/01/08 06:30:20;;;;;;;0.80;0.80;;;;;;;1.28;96.70;100125.06;5052615;28;20197;-59
2023/01/08 06:32:47;;;;;;;0.70;0.70;;;;;;;1.26;96.68;100124.19;5052428;28;20233;-58
2023/01/08 06:35:15;;;;;;;0.70;0.70;;;;;;;1.24;96.92;100121.63;5052608;28;20288;-59
2023/01/08 06:37:42;;;;;;;0.77;0.77;;;;;;;1.24;97.24;100130.88;5052109;28;20254;-58
2023/01/08 06:40:10;;;;;;;0.80;0.80;;;;;;;1.21;97.37;100138.41;5052227;28;20203;-59
2023/01/08 06:42:36;;;;;;;0.70;0.70;;;;;;;1.19;97.72;100142.56;5052122;28;20739;-58
2023/01/08 06:45:03;;;;;;;0.80;0.80;;;;;;;1.16;98.12;100132.41;5052080;28;20254;-58
2023/01/08 06:47:30;;;;;;;0.80;0.80;;;;;;;1.20;98.74;100141.72;5052119;28;20657;-58
2023/01/08 06:49:58;;;;;;;0.70;0.70;;;;;;;1.21;98.86;100143.44;5052416;28;20200;-58
2023/01/08 06:52:26;;;;;;;0.60;0.60;;;;;;;1.15;99.16;100135.75;5051896;28;20208;-59
2023/01/08 06:54:53;;;;;;;0.60;0.60;;;;;;;1.26;99.54;100146.94;5052305;28;20287;-59
2023/01/08 06:57:20;;;;;;;0.70;0.70;;;;;;;1.27;99.81;100153.66;5052169;28;20262;-59
2023/01/08 06:59:46;;;;;;;0.90;0.90;;;;;;;1.26;99.72;100142.69;5052022;28;20750;-58
2023/01/08 07:02:14;;;;;;;0.87;0.87;;;;;;;1.21;100.00;100143.44;5051771;28;20201;-59
2023/01/08 07:04:40;;;;;;;0.70;0.70;;;;;;;1.19;100.00;100135.00;5051767;28;20769;-58
2023/01/08 07:07:08;;;;;;;0.60;0.60;;;;;;;1.20;100.00;100121.53;5052202;28;20758;-59
2023/01/08 07:09:36;;;;;;;0.80;0.80;;;;;;;1.29;100.00;100134.34;5051566;28;20192;-58
2023/01/08 07:12:03;;;;;;;0.80;0.80;;;;;;;1.44;100.00;100150.63;5051681;28;20212;-58
2023/01/08 07:14:30;;;;;;;0.70;0.70;;;;;;;1.48;100.00;100154.94;5051667;28;20197;-58
2023/01/08 07:16:57;;;;;;;0.70;0.70;;;;;;;1.47;100.00;100157.41;5051810;28;20330;-59
2023/01/08 07:19:23;;;;;;;0.87;0.87;;;;;;;1.39;100.00;100164.00;5051989;28;20669;-59
2023/01/08 07:21:50;;;;;;;0.60;0.60;;;;;;;1.43;100.00;100156.50;5051737;28;20685;-59
2023/01/08 07:24:17;;;;;;;0.77;0.77;;;;;;;1.41;100.00;100157.31;5051703;28;20207;-59
2023/01/08 07:26:45;;;;;;;0.60;0.60;;;;;;;1.41;100.00;100147.19;5051394;28;20192;-59
2023/01/08 07:29:12;;;;;;;0.70;0.70;;;;;;;1.56;100.00;100165.16;5051543;28;20690;-59
2023/01/08 07:31:39;;;;;;;0.80;0.80;;;;;;;1.59;100.00;100163.53;5051609;28;20207;-58
2023/01/08 07:34:06;;;;;;;0.80;0.80;;;;;;;1.55;100.00;100145.78;5050196;28;20255;-59
2023/01/08 07:36:33;;;;;;;0.80;0.80;;;;;;;1.72;100.00;100169.66;5051350;28;20205;-58
2023/01/08 07:38:59;;;;;;;0.70;0.70;;;;;;;1.78;100.00;100172.28;5051543;28;20575;-58
2023/01/08 07:41:26;;;;;;;0.60;0.60;;;;;;;1.84;100.00;100164.81;5051256;28;20668;-58
2023/01/08 07:43:54;;;;;;;0.60;0.60;;;;;;;1.87;100.00;100164.88;5051478;28;20208;-58
2023/01/08 07:46:22;;;;;;;0.70;0.70;;;;;;;1.94;100.00;100175.94;5051376;28;20197;-59
2023/01/08 07:48:49;;;;;;;0.70;0.70;;;;;;;1.96;100.00;100170.09;5051187;28;20204;-59
2023/01/08 07:51:16;;;;;;;0.60;0.60;;;;;;;2.08;100.00;100171.94;5050988;28;20193;-59
2023/01/08 07:53:43;;;;;;;0.80;0.80;;;;;;;2.11;100.00;100175.38;5051024;28;20197;-59
2023/01/08 07:56:10;;;;;;;0.60;0.60;;;;;;;2.20;100.00;100173.84;5050887;28;20204;-59
2023/01/08 07:58:38;;;;;;;0.70;0.70;;;;;;;2.29;100.00;100173.97;5050761;28;20217;-59
2023/01/08 08:01:09;;;;;;;0.70;0.70;;;;;;;2.29;100.00;100172.31;5050900;28;20576;-59
2023/01/08 08:03:37;;;;;;;0.63;0.63;;;;;;;2.45;100.00;100180.97;5051161;28;20803;-58
2023/01/08 08:06:04;;;;;;;0.60;0.60;;;;;;;2.60;100.00;100181.19;5050516;28;20227;-59
2023/01/08 08:08:31;;;;;;;0.67;0.67;;;;;;;2.71;100.00;100174.59;5048747;28;20644;-58
2023/01/08 08:10:58;;;;;;;0.60;0.60;;;;;;;2.88;100.00;100175.66;5051053;28;20200;-58
2023/01/08 08:13:24;;;;;;;0.60;0.60;;;;;;;2.85;100.00;100137.63;5051096;28;20676;-59
2023/01/08 08:15:51;;;;;;;0.60;0.60;;;;;;;3.16;100.00;100174.34;5051093;28;20197;-59
2023/01/08 08:18:20;;;;;;;0.60;0.60;;;;;;;3.28;100.00;100173.63;5050378;28;20227;-59
2023/01/08 08:20:50;;;;;;;0.60;0.60;;;;;;;3.41;100.00;100170.38;5050894;28;20331;-59
2023/01/08 08:23:19;;;;;;;0.50;0.50;;;;;;;3.55;100.00;100171.41;5050546;28;20205;-59
2023/01/08 08:25:46;;;;;;;0.60;0.60;;;;;;;3.59;100.00;100162.97;5050593;28;20208;-58
2023/01/08 08:28:13;;;;;;;0.60;0.60;;;;;;;3.76;100.00;100174.13;5050216;28;20197;-59
2023/01/08 08:30:40;;;;;;;0.60;0.60;;;;;;;3.88;100.00;100168.34;5047763;28;20204;-59
2023/01/08 08:33:07;;;;;;;0.50;0.50;;;;;;;3.98;100.00;100170.09;5050417;28;20204;-60
2023/01/08 08:35:35;;;;;;;0.60;0.60;;;;;;;4.06;100.00;100163.41;5050627;28;20200;-58
2023/01/08 08:38:03;;;;;;;0.50;0.50;;;;;;;4.14;100.00;100165.16;5046178;28;20208;-59
2023/01/08 08:40:30;;;;;;;0.70;0.70;;;;;;;4.17;100.00;100157.56;5049882;28;20197;-58
2023/01/08 08:42:57;;;;;;;0.60;0.60;;;;;;;4.34;100.00;100164.44;5050681;28;20197;-58
2023/01/08 08:45:24;;;;;;;1.67;1.60;;;;;;;4.48;100.00;100167.94;5050502;28;20284;-59
2023/01/08 08:47:51;;;;;;;0.70;0.70;;;;;;;4.58;100.00;100159.56;5050472;28;20197;-58
2023/01/08 08:50:18;;;;;;;0.80;0.80;;;;;;;4.69;100.00;100170.59;5050486;28;20588;-60
2023/01/08 08:52:47;;;;;;;0.70;0.70;;;;;;;4.82;100.00;100166.44;5050634;28;20669;-59
2023/01/08 08:55:17;;;;;;;0.70;0.70;;;;;;;4.87;100.00;100165.63;5050223;28;20197;-58
2023/01/08 08:57:44;;;;;;;0.60;0.60;;;;;;;4.94;100.00;100164.84;5050312;28;20248;-59
2023/01/08 09:00:13;;;;;;;0.50;0.50;;;;;;;5.05;100.00;100168.25;5046581;28;20668;-59
2023/01/08 09:02:39;;;;;;;0.50;0.50;;;;;;;5.13;100.00;100161.53;5050200;28;20200;-58
2023/01/08 09:05:06;;;;;;;0.50;0.50;;;;;;;5.26;100.00;100163.28;5050243;28;20228;-59
2023/01/08 09:07:33;;;;;;;0.70;0.70;;;;;;;5.41;100.00;100156.50;5050172;28;20201;-59
2023/01/08 09:10:02;;;;;;;0.80;0.80;;;;;;;5.52;100.00;100154.88;5050078;28;20912;-59
2023/01/08 09:12:29;;;;;;;0.90;0.90;;;;;;;5.67;99.96;100149.78;5054158;28;20691;-59
2023/01/08 09:14:55;;;;;;;1.37;0.93;;;;;;;5.86;100.00;100155.78;5054162;28;20201;-59
2023/01/08 09:17:24;;;;;;;0.87;0.87;;;;;;;5.99;99.89;100153.25;5054110;28;20657;-59
2023/01/08 09:19:51;;;;;;;0.93;0.93;;;;;;;6.07;99.14;100154.13;5051755;28;20630;-59
2023/01/08 09:22:17;;;;;;;0.60;0.60;;;;;;;6.17;97.97;100157.50;5053815;28;20212;-59
2023/01/08 09:24:44;;;;;;;0.50;0.50;;;;;;;6.28;98.31;100151.53;5054148;28;20680;-59
2023/01/08 09:27:12;;;;;;;0.50;0.50;;;;;;;6.38;97.48;100141.34;5053765;28;20201;-59
2023/01/08 09:29:39;;;;;;;0.60;0.60;;;;;;;6.47;97.29;100136.22;5053940;28;20201;-59
2023/01/08 09:32:07;;;;;;;0.47;0.47;;;;;;;6.65;96.13;100126.00;5053622;28;20208;-59
2023/01/08 09:34:35;;;;;;;0.50;0.50;;;;;;;6.79;96.10;100129.34;5054037;28;20203;-59
2023/01/08 09:37:01;;;;;;;0.50;0.50;;;;;;;6.84;96.41;100123.41;5053711;28;20576;-59
2023/01/08 09:39:28;;;;;;;0.70;0.70;;;;;;;7.07;96.87;100120.75;5053861;28;20287;-59
2023/01/08 09:41:57;;;;;;;0.40;0.40;;;;;;;7.13;95.92;100117.31;5053713;28;20192;-59
2023/01/08 09:44:29;;;;;;;0.60;0.60;;;;;;;7.26;96.06;100106.22;5053446;28;20258;-60
2023/01/08 09:46:56;;;;;;;1.10;1.10;;;;;;;7.33;94.86;100107.88;5053547;28;20212;-59
2023/01/08 09:49:28;;;;;;;0.80;0.80;;;;;;;7.40;93.97;100101.84;5053871;28;20588;-59
2023/01/08 09:51:55;;;;;;;0.63;0.63;;;;;;;7.49;94.00;100098.41;5053403;28;20196;-59
2023/01/08 09:54:25;;;;;;;0.73;0.73;;;;;;;7.56;93.71;100089.88;5053676;28;20196;-59
2023/01/08 09:56:52;;;;;;;0.57;0.57;;;;;;;7.68;93.88;100097.44;5052877;28;20201;-59
2023/01/08 09:59:20;;;;;;;0.50;0.50;;;;;;;7.75;92.89;100091.44;5053503;28;20239;-59
2023/01/08 10:01:48;;;;;;;0.50;0.50;;;;;;;7.82;91.69;100091.34;5052978;28;20565;-59
2023/01/08 10:04:17;;;;;;;0.50;0.50;;;;;;;7.77;91.72;100066.72;5053017;28;20228;-59
2023/01/08 10:06:50;;;;;;;0.77;0.77;;;;;;;8.08;91.26;100085.19;5053576;28;20205;-60
2023/01/08 10:09:21;;;;;;;0.53;0.53;;;;;;;8.16;90.51;100089.38;5053061;28;20201;-59
2023/01/08 10:11:50;;;;;;;0.40;0.40;;;;;;;8.24;90.49;100077.34;5053384;28;20200;-59
2023/01/08 10:14:22;;;;;;;0.80;0.80;;;;;;;8.23;90.09;100060.34;5053550;28;20672;-60
2023/01/08 10:16:55;;;;;;;0.60;0.60;;;;;;;8.24;88.23;100062.03;5052519;28;20211;-60
2023/01/08 10:19:23;;;;;;;0.50;0.50;;;;;;;8.42;88.36;100061.88;5053020;28;20216;-60
2023/01/08 10:21:50;;;;;;;0.60;0.60;;;;;;;8.54;89.05;100060.03;5052453;28;20204;-59
2023/01/08 10:24:18;;;;;;;0.60;0.60;;;;;;;8.58;87.97;100051.47;5052729;28;20201;-60
2023/01/08 10:26:46;;;;;;;0.50;0.50;;;;;;;8.54;87.18;100044.69;5052606;28;20203;-59
2023/01/08 10:29:15;;;;;;;0.77;0.77;;;;;;;8.73;88.15;100057.25;5053092;28;20205;-59
2023/01/08 10:31:47;;;;;;;0.60;0.60;;;;;;;8.76;86.34;100048.69;5052754;28;20200;-60
2023/01/08 10:34:25;;;;;;;0.40;0.40;;;;;;;8.91;88.31;100048.50;5052733;28;20197;-60
2023/01/08 10:36:54;;;;;;;0.60;0.60;;;;;;;8.85;87.03;100015.38;5052675;28;20193;-60
2023/01/08 10:39:25;;;;;;;0.40;0.40;;;;;;;9.02;86.54;100038.97;5052650;28;20270;-60
2023/01/08 10:41:55;;;;;;;1.07;1.07;;;;;;;9.06;84.85;100030.41;5052695;28;20199;-59
2023/01/08 10:44:24;;;;;;;0.50;0.50;;;;;;;9.13;85.08;100032.00;5052156;28;20197;-59
2023/01/08 10:46:55;;;;;;;0.47;0.47;;;;;;;9.20;84.80;100028.50;5052373;28;20254;-59
2023/01/08 10:49:30;;;;;;;0.40;0.40;;;;;;;9.28;84.31;100030.91;5052372;28;20200;-59
2023/01/08 10:51:58;;;;;;;0.80;0.80;;;;;;;9.27;83.69;100024.97;5050036;28;20660;-59
2023/01/08 10:54:32;;;;;;;0.40;0.40;;;;;;;9.32;83.46;100018.06;5052230;28;20197;-59
2023/01/08 10:56:59;;;;;;;0.50;0.50;;;;;;;9.42;83.70;100019.63;5052239;28;20669;-60
2023/01/08 10:59:26;;;;;;;0.43;0.43;;;;;;;9.53;83.79;100010.94;5052119;28;20221;-59
2023/01/08 11:01:55;;;;;;;0.50;0.50;;;;;;;9.57;83.74;99992.06;5052302;28;20207;-59
2023/01/08 11:04:31;;;;;;;0.40;0.40;;;;;;;9.72;83.09;100002.94;5051721;28;20290;-59
2023/01/08 11:07:01;;;;;;;0.50;0.50;;;;;;;9.73;82.26;99998.63;5051544;28;20206;-60
2023/01/08 11:09:31;;;;;;;0.60;0.60;;;;;;;9.73;81.56;99993.50;5052071;28;20215;-60
2023/01/08 11:11:59;;;;;;;0.50;0.50;;;;;;;9.52;82.11;99952.94;5051774;28;20193;-60
2023/01/08 11:14:30;;;;;;;0.63;0.63;;;;;;;9.79;81.98;99988.31;5051752;28;20196;-60
2023/01/08 11:16:58;;;;;;;0.50;0.50;;;;;;;9.86;81.79;99989.88;5051985;28;20216;-59
2023/01/08 11:19:29;;;;;;;0.50;0.50;;;;;;;9.90;82.67;99983.81;5051584;28;20220;-60
2023/01/08 11:21:58;;;;;;;0.70;0.70;;;;;;;9.99;81.62;99991.34;5052381;28;20200;-60
2023/01/08 11:24:27;;;;;;;0.47;0.47;;;;;;;10.06;81.67;99977.53;5051631;28;20669;-60
2023/01/08 11:26:59;;;;;;;0.80;0.80;;;;;;;10.15;81.64;99981.66;5052009;28;20712;-60
2023/01/08 11:29:31;;;;;;;0.50;0.50;;;;;;;10.23;81.52;99987.50;5051500;28;20204;-60
2023/01/08 11:32:16;;;;;;;0.50;0.50;;;;;;;10.25;81.00;99978.06;5051661;28;20201;-59
2023/01/08 11:34:51;;;;;;;0.70;0.70;;;;;;;10.31;81.33;99977.94;5050818;28;20283;-60
2023/01/08 11:37:21;;;;;;;0.50;0.50;;;;;;;10.31;81.57;99971.09;5051654;28;20262;-59